createdAt,value
2023-02-24T00:01:21.469Z,14.18
2023-02-24T00:03:48.309Z,14.13
2023-02-24T00:06:14.781Z,13.32
2023-02-24T00:08:41.791Z,15.60
2023-02-24T00:11:13.067Z,13.90
2023-02-24T00:13:40.582Z,13.10
2023-02-24T00:16:07.561Z,18.38
2023-02-24T00:18:34.301Z,13.75
2023-02-24T00:21:10.577Z,11.17
2023-02-24T00:23:37.727Z,14.73
2023-02-24T00:26:05.378Z,15.85
2023-02-24T00:28:32.244Z,12.45
2023-02-24T00:31:03.971Z,16.45
2023-02-24T00:33:30.409Z,13.67
2023-02-24T00:36:05.033Z,11.80
2023-02-24T00:38:31.494Z,15.32
2023-02-24T00:40:57.950Z,14.20
2023-02-24T00:43:24.526Z,10.20
2023-02-24T00:45:50.986Z,15.50
2023-02-24T00:48:17.465Z,18.50
2023-02-24T00:50:43.948Z,14.20
2023-02-24T00:53:10.345Z,13.18
2023-02-24T00:55:36.768Z,14.10
2023-02-24T00:58:04.303Z,13.90
2023-02-24T01:00:32.219Z,14.65
2023-02-24T01:02:58.642Z,14.88
2023-02-24T01:05:25.294Z,14.32
2023-02-24T01:07:51.995Z,11.85
2023-02-24T01:10:18.661Z,14.00
2023-02-24T01:12:45.097Z,14.38
2023-02-24T01:15:11.639Z,13.20
2023-02-24T01:17:38.206Z,11.77
2023-02-24T01:20:07.685Z,16.95
2023-02-24T01:22:34.161Z,12.87
2023-02-24T01:25:00.642Z,14.23
2023-02-24T01:27:27.069Z,14.35
2023-02-24T01:29:53.562Z,14.60
2023-02-24T01:32:21.649Z,14.73
2023-02-24T01:34:52.116Z,12.47
2023-02-24T01:37:18.901Z,11.52
2023-02-24T01:39:45.405Z,14.63
2023-02-24T01:42:14.777Z,11.50
2023-02-24T01:44:41.147Z,13.80
2023-02-24T01:47:07.619Z,16.70
2023-02-24T01:49:35.912Z,15.52
2023-02-24T01:52:15.207Z,17.05
2023-02-24T01:54:50.106Z,17.00
2023-02-24T01:57:19.665Z,11.68
2023-02-24T01:59:49.301Z,13.47
2023-02-24T02:02:17.140Z,15.20
2023-02-24T02:04:51.394Z,17.92
2023-02-24T02:07:21.543Z,18.15
2023-02-24T02:09:49.293Z,15.52
2023-02-24T02:12:15.706Z,15.27
2023-02-24T02:14:46.641Z,18.00
2023-02-24T02:17:15.687Z,14.80
2023-02-24T02:19:48.160Z,20.30
2023-02-24T02:22:56.687Z,17.70
2023-02-24T02:25:35.069Z,14.93
2023-02-24T02:28:31.544Z,15.73
2023-02-24T02:31:12.330Z,14.48
2023-02-24T02:34:16.196Z,17.98
2023-02-24T02:37:01.536Z,15.48
2023-02-24T02:39:38.149Z,16.17
2023-02-24T02:42:26.141Z,12.45
2023-02-24T02:44:55.528Z,19.00
2023-02-24T02:48:07.361Z,12.23
2023-02-24T02:50:54.347Z,14.85
2023-02-24T02:53:34.213Z,13.17
2023-02-24T02:56:10.666Z,13.75
2023-02-24T02:58:42.118Z,19.02
2023-02-24T03:01:11.070Z,14.60
2023-02-24T03:03:44.424Z,17.77
2023-02-24T03:06:16.067Z,14.90
2023-02-24T03:09:05.229Z,18.65
2023-02-24T03:11:31.688Z,16.08
2023-02-24T03:13:58.517Z,16.13
2023-02-24T03:16:27.133Z,17.65
2023-02-24T03:18:59.758Z,13.73
2023-02-24T03:21:34.623Z,14.60
2023-02-24T03:24:02.243Z,15.07
2023-02-24T03:26:37.549Z,15.68
2023-02-24T03:29:11.470Z,17.75
2023-02-24T03:32:12.262Z,12.47
2023-02-24T03:35:13.776Z,19.42
2023-02-24T03:37:40.227Z,12.02
2023-02-24T03:40:10.851Z,19.08
2023-02-24T03:42:40.148Z,16.05
2023-02-24T03:45:08.258Z,14.43
2023-02-24T03:47:34.997Z,15.18
2023-02-24T03:50:01.483Z,13.88
2023-02-24T03:52:43.282Z,15.02
2023-02-24T03:55:21.794Z,16.10
2023-02-24T03:57:48.236Z,16.50
2023-02-24T04:00:22.249Z,13.82
2023-02-24T04:02:53.238Z,12.73
2023-02-24T04:05:23.750Z,16.50
2023-02-24T04:08:07.138Z,14.18
2023-02-24T04:10:45.010Z,18.10
2023-02-24T04:13:57.421Z,13.77
2023-02-24T04:16:37.979Z,15.60
2023-02-24T04:19:09.244Z,12.73
2023-02-24T04:21:38.357Z,12.25
2023-02-24T04:24:07.134Z,13.63
2023-02-24T04:26:36.572Z,10.98
2023-02-24T04:29:03.670Z,15.27
2023-02-24T04:31:31.698Z,15.48
2023-02-24T04:33:58.210Z,16.33
2023-02-24T04:36:24.654Z,15.53
2023-02-24T04:38:51.220Z,13.57
2023-02-24T04:41:18.449Z,13.18
2023-02-24T04:43:45.199Z,10.65
2023-02-24T04:46:11.680Z,12.75
2023-02-24T04:48:38.267Z,13.13
2023-02-24T04:51:05.091Z,13.40
2023-02-24T04:53:31.585Z,15.63
2023-02-24T04:56:02.723Z,14.27
2023-02-24T04:58:29.125Z,16.83
2023-02-24T05:00:56.037Z,12.57
2023-02-24T05:03:24.139Z,11.85
2023-02-24T05:05:53.252Z,16.75
2023-02-24T05:08:20.041Z,13.85
2023-02-24T05:10:47.106Z,13.77
2023-02-24T05:13:21.957Z,9.90
2023-02-24T05:15:48.468Z,16.55
2023-02-24T05:18:16.072Z,13.70
2023-02-24T05:20:54.153Z,14.77
2023-02-24T05:23:27.635Z,9.85
2023-02-24T05:25:54.246Z,14.23
2023-02-24T05:28:24.126Z,12.98
2023-02-24T05:30:51.246Z,16.38
2023-02-24T05:33:18.314Z,14.52
2023-02-24T05:35:44.804Z,10.65
2023-02-24T05:38:11.345Z,11.50
2023-02-24T05:40:37.770Z,10.23
2023-02-24T05:43:04.240Z,12.50
2023-02-24T05:45:30.711Z,19.88
2023-02-24T05:47:57.198Z,13.63
2023-02-24T05:50:23.715Z,13.10
2023-02-24T05:52:50.127Z,13.48
2023-02-24T05:55:16.719Z,11.77
2023-02-24T05:57:43.169Z,13.45
2023-02-24T06:00:10.302Z,12.23
2023-02-24T06:02:37.004Z,19.40
2023-02-24T06:05:03.756Z,12.27
2023-02-24T06:07:32.014Z,12.45
2023-02-24T06:09:59.066Z,11.75
2023-02-24T06:12:31.424Z,16.75
2023-02-24T06:14:57.884Z,13.53
2023-02-24T06:17:24.656Z,11.73
2023-02-24T06:19:53.106Z,14.82
2023-02-24T06:22:22.350Z,12.68
2023-02-24T06:24:49.748Z,11.32
2023-02-24T06:27:19.522Z,9.70
2023-02-24T06:29:50.380Z,10.55
2023-02-24T06:32:23.594Z,11.82
2023-02-24T06:34:51.401Z,10.57
2023-02-24T06:37:18.269Z,12.68
2023-02-24T06:39:44.970Z,10.90
2023-02-24T06:42:12.640Z,13.52
2023-02-24T06:44:41.226Z,10.60
2023-02-24T06:47:11.406Z,11.55
2023-02-24T06:49:37.849Z,9.35
2023-02-24T06:52:04.992Z,14.97
2023-02-24T06:54:31.833Z,11.52
2023-02-24T06:56:59.337Z,11.00
2023-02-24T06:59:26.609Z,11.82
2023-02-24T07:01:53.058Z,9.43
2023-02-24T07:04:19.633Z,13.60
2023-02-24T07:06:54.308Z,16.60
2023-02-24T07:09:23.419Z,11.45
2023-02-24T07:11:52.708Z,13.27
2023-02-24T07:14:29.017Z,10.45
2023-02-24T07:16:55.734Z,11.43
2023-02-24T07:19:26.565Z,14.45
2023-02-24T07:21:57.563Z,9.32
2023-02-24T07:24:24.118Z,9.80
2023-02-24T07:26:58.130Z,11.52
2023-02-24T07:29:26.235Z,11.73
2023-02-24T07:31:53.340Z,8.40
2023-02-24T07:34:21.632Z,14.80
2023-02-24T07:36:48.074Z,11.60
2023-02-24T07:39:16.825Z,13.07
2023-02-24T07:41:43.297Z,13.93
2023-02-24T07:44:09.723Z,16.35
2023-02-24T07:46:36.411Z,14.18
2023-02-24T07:49:02.979Z,12.43
2023-02-24T07:51:29.911Z,11.75
2023-02-24T07:53:59.296Z,9.83
2023-02-24T07:56:27.848Z,10.63
2023-02-24T07:58:58.854Z,11.93
2023-02-24T08:01:27.288Z,14.02
2023-02-24T08:03:59.404Z,13.00
2023-02-24T08:06:26.670Z,14.50
2023-02-24T08:08:56.549Z,17.20
2023-02-24T08:11:23.735Z,10.25
2023-02-24T08:13:50.197Z,11.93
2023-02-24T08:16:16.683Z,14.07
2023-02-24T08:18:43.117Z,11.00
2023-02-24T08:21:09.582Z,12.77
2023-02-24T08:23:36.022Z,10.63
2023-02-24T08:26:03.122Z,11.73
2023-02-24T08:28:29.536Z,10.32
2023-02-24T08:30:56.098Z,10.93
2023-02-24T08:33:23.067Z,11.55
2023-02-24T08:35:54.283Z,10.52
2023-02-24T08:38:22.950Z,9.02
2023-02-24T08:40:52.362Z,10.55
2023-02-24T08:43:30.750Z,10.90
2023-02-24T08:46:13.984Z,11.68
2023-02-24T08:48:43.429Z,10.57
2023-02-24T08:51:19.780Z,14.40
2023-02-24T08:53:46.565Z,14.13
2023-02-24T08:56:16.113Z,13.73
2023-02-24T08:58:44.634Z,9.88
2023-02-24T09:01:17.465Z,14.05
2023-02-24T09:03:48.090Z,13.68
2023-02-24T09:06:17.634Z,9.35
2023-02-24T09:08:46.041Z,12.00
2023-02-24T09:11:15.079Z,15.73
2023-02-24T09:13:46.176Z,17.63
2023-02-24T09:16:12.682Z,13.90
2023-02-24T09:18:39.261Z,12.88
2023-02-24T09:21:10.717Z,11.00
2023-02-24T09:23:37.116Z,10.35
2023-02-24T09:26:03.643Z,13.48
2023-02-24T09:28:30.116Z,7.57
2023-02-24T09:30:58.995Z,11.65
2023-02-24T09:33:29.804Z,12.10
2023-02-24T09:36:01.690Z,13.88
2023-02-24T09:38:28.695Z,12.70
2023-02-24T09:40:55.136Z,11.13
2023-02-24T09:43:29.388Z,9.63
2023-02-24T09:46:08.069Z,10.67
2023-02-24T09:48:56.843Z,12.55
2023-02-24T09:51:23.735Z,14.23
2023-02-24T09:53:54.599Z,13.27
2023-02-24T09:56:26.303Z,10.70
2023-02-24T09:59:08.177Z,12.20
2023-02-24T10:02:04.030Z,15.25
2023-02-24T10:04:48.767Z,17.48
2023-02-24T10:07:31.154Z,15.50
2023-02-24T10:10:05.455Z,16.73
2023-02-24T10:12:34.949Z,9.90
2023-02-24T10:15:13.527Z,14.25
2023-02-24T10:17:40.005Z,15.82
2023-02-24T10:20:16.504Z,12.95
2023-02-24T10:22:52.929Z,12.57
2023-02-24T10:25:37.710Z,17.73
2023-02-24T10:28:33.634Z,13.98
2023-02-24T10:31:08.271Z,16.05
2023-02-24T10:33:36.996Z,19.45
2023-02-24T10:36:17.884Z,16.15
2023-02-24T10:38:45.788Z,15.43
2023-02-24T10:41:15.361Z,12.77
2023-02-24T10:43:53.841Z,18.90
2023-02-24T10:46:40.701Z,14.40
2023-02-24T10:49:10.428Z,16.67
2023-02-24T10:51:42.049Z,12.77
2023-02-24T10:54:19.657Z,15.70
2023-02-24T10:56:46.315Z,14.35
2023-02-24T10:59:15.812Z,17.67
2023-02-24T11:01:43.267Z,15.43
2023-02-24T11:04:15.203Z,15.37
2023-02-24T11:06:41.717Z,16.30
2023-02-24T11:09:13.908Z,16.52
2023-02-24T11:11:40.370Z,16.30
2023-02-24T11:14:17.015Z,12.30
2023-02-24T11:16:55.014Z,12.47
2023-02-24T11:19:21.444Z,13.32
2023-02-24T11:21:47.918Z,14.10
2023-02-24T11:24:18.974Z,16.63
2023-02-24T11:26:46.278Z,18.10
2023-02-24T11:29:23.740Z,17.13
2023-02-24T11:32:08.794Z,16.85
2023-02-24T11:35:02.030Z,14.77
2023-02-24T11:37:34.221Z,16.20
2023-02-24T11:40:05.519Z,18.55
2023-02-24T11:42:39.159Z,20.80
2023-02-24T11:45:14.356Z,24.13
2023-02-24T11:47:49.364Z,16.85
2023-02-24T11:50:32.884Z,13.82
2023-02-24T11:53:07.888Z,16.80
2023-02-24T11:55:39.890Z,20.43
2023-02-24T11:58:33.770Z,22.90
2023-02-24T12:01:10.618Z,21.48
2023-02-24T12:03:52.058Z,20.60
2023-02-24T12:06:31.073Z,20.95
2023-02-24T12:09:03.208Z,21.23
2023-02-24T12:11:38.888Z,20.40
2023-02-24T12:14:11.465Z,24.20
2023-02-24T12:16:43.286Z,21.58
2023-02-24T12:19:18.651Z,23.75
2023-02-24T12:21:55.027Z,26.33
2023-02-24T12:24:21.791Z,21.60
2023-02-24T12:27:03.138Z,20.77
2023-02-24T12:29:35.618Z,18.42
2023-02-24T12:32:14.317Z,20.58
2023-02-24T12:35:11.579Z,19.33
2023-02-24T12:38:15.915Z,17.10
2023-02-24T12:41:14.782Z,17.65
2023-02-24T12:43:41.172Z,23.95
2023-02-24T12:46:13.341Z,21.35
2023-02-24T12:49:01.284Z,20.50
2023-02-24T12:51:55.169Z,20.05
2023-02-24T12:54:37.810Z,19.40
2023-02-24T12:57:31.891Z,21.95
2023-02-24T13:00:08.127Z,22.25
2023-02-24T13:03:08.063Z,19.90
2023-02-24T13:05:46.142Z,23.17
2023-02-24T13:08:24.443Z,23.67
2023-02-24T13:10:57.150Z,22.88
2023-02-24T13:13:30.593Z,24.98
2023-02-24T13:15:59.214Z,28.27
2023-02-24T13:18:35.135Z,26.33
2023-02-24T13:21:15.403Z,26.95
2023-02-24T13:23:52.141Z,27.25
2023-02-24T13:26:23.477Z,30.38
2023-02-24T13:29:03.380Z,29.13
2023-02-24T13:31:48.386Z,29.67
2023-02-24T13:34:44.709Z,37.17
2023-02-24T13:37:11.452Z,33.92
2023-02-24T13:39:40.236Z,31.67
2023-02-24T13:42:25.136Z,31.37
2023-02-24T13:45:17.662Z,30.38
2023-02-24T13:48:05.938Z,28.65
2023-02-24T13:50:35.345Z,28.15
2023-02-24T13:53:34.036Z,28.75
2023-02-24T13:56:09.370Z,30.37
2023-02-24T13:58:58.904Z,28.85
2023-02-24T14:01:28.078Z,29.17
2023-02-24T14:04:15.831Z,27.77
2023-02-24T14:06:51.569Z,29.17
2023-02-24T14:09:23.405Z,26.10
2023-02-24T14:11:55.802Z,26.92
2023-02-24T14:14:23.252Z,29.90
2023-02-24T14:16:50.932Z,24.38
2023-02-24T14:19:18.209Z,24.25
2023-02-24T14:21:53.177Z,34.13
2023-02-24T14:24:20.253Z,32.65
2023-02-24T14:26:54.265Z,31.30
2023-02-24T14:29:25.102Z,28.85
2023-02-24T14:31:54.634Z,25.27
2023-02-24T14:34:27.311Z,24.13
2023-02-24T14:36:56.362Z,23.73
2023-02-24T14:39:31.115Z,26.15
2023-02-24T14:42:09.628Z,19.85
2023-02-24T14:44:42.923Z,25.17
2023-02-24T14:47:12.374Z,16.70
2023-02-24T14:49:38.963Z,19.17
2023-02-24T14:52:11.225Z,15.43
2023-02-24T14:54:52.308Z,19.23
2023-02-24T14:57:25.345Z,26.65
2023-02-24T15:00:02.716Z,27.60
2023-02-24T15:02:33.394Z,21.98
2023-02-24T15:05:00.391Z,24.27
2023-02-24T15:07:30.620Z,19.20
2023-02-24T15:09:57.886Z,22.45
2023-02-24T15:12:33.905Z,24.33
2023-02-24T15:15:21.773Z,19.00
2023-02-24T15:17:58.301Z,16.85
2023-02-24T15:20:30.014Z,14.07
2023-02-24T15:22:57.195Z,18.90
2023-02-24T15:25:41.889Z,11.20
2023-02-24T15:28:29.997Z,16.15
2023-02-24T15:31:05.410Z,15.88
2023-02-24T15:33:41.031Z,13.45
2023-02-24T15:36:23.923Z,24.27
2023-02-24T15:39:01.803Z,13.67
2023-02-24T15:41:42.271Z,17.65
2023-02-24T15:44:30.412Z,18.42
2023-02-24T15:46:58.629Z,15.27
2023-02-24T15:49:25.594Z,17.08
2023-02-24T15:51:54.645Z,17.33
2023-02-24T15:54:36.136Z,16.92
2023-02-24T15:57:04.205Z,15.73
2023-02-24T15:59:30.982Z,19.67
2023-02-24T16:01:57.564Z,14.07
2023-02-24T16:04:24.745Z,12.47
2023-02-24T16:06:54.834Z,12.10
2023-02-24T16:09:35.606Z,8.15
2023-02-24T16:12:21.828Z,8.52
2023-02-24T16:14:49.470Z,7.20
2023-02-24T16:17:43.216Z,7.77
2023-02-24T16:20:14.036Z,8.35
2023-02-24T16:22:40.949Z,8.57
2023-02-24T16:25:07.722Z,9.35
2023-02-24T16:27:34.521Z,11.45
2023-02-24T16:30:01.280Z,8.00
2023-02-24T16:32:28.014Z,11.55
2023-02-24T16:34:54.932Z,11.98
2023-02-24T16:37:24.276Z,12.02
2023-02-24T16:39:50.741Z,10.70
2023-02-24T16:42:17.570Z,13.83
2023-02-24T16:44:44.682Z,10.18
2023-02-24T16:47:19.288Z,7.82
2023-02-24T16:49:46.268Z,8.15
2023-02-24T16:52:13.407Z,10.57
2023-02-24T16:54:39.927Z,9.83
2023-02-24T16:57:06.486Z,11.40
2023-02-24T16:59:33.185Z,8.73
2023-02-24T17:01:59.737Z,12.73
2023-02-24T17:04:26.263Z,13.15
2023-02-24T17:06:52.787Z,15.00
2023-02-24T17:09:19.335Z,15.25
2023-02-24T17:11:45.853Z,18.63
2023-02-24T17:14:20.141Z,15.32
2023-02-24T17:16:47.678Z,13.50
2023-02-24T17:19:14.269Z,10.83
2023-02-24T17:21:44.232Z,10.10
2023-02-24T17:24:16.827Z,9.38
2023-02-24T17:26:43.758Z,10.63
2023-02-24T17:29:11.353Z,7.05
2023-02-24T17:31:37.944Z,8.70
2023-02-24T17:34:06.271Z,11.23
2023-02-24T17:36:33.035Z,13.88
2023-02-24T17:38:59.668Z,10.85
2023-02-24T17:41:26.420Z,13.20
2023-02-24T17:43:53.982Z,14.97
2023-02-24T17:46:20.667Z,9.20
2023-02-24T17:48:47.343Z,10.00
2023-02-24T17:51:15.498Z,10.73
2023-02-24T17:53:41.997Z,12.00
2023-02-24T17:56:09.214Z,12.67
2023-02-24T17:58:36.772Z,8.20
2023-02-24T18:01:05.016Z,11.35
2023-02-24T18:03:33.272Z,9.38
2023-02-24T18:06:06.118Z,11.38
2023-02-24T18:08:34.030Z,13.90
2023-02-24T18:11:01.053Z,15.10
2023-02-24T18:13:29.282Z,14.27
2023-02-24T18:15:55.890Z,10.40
2023-02-24T18:18:23.094Z,14.50
2023-02-24T18:20:49.525Z,13.00
2023-02-24T18:23:16.034Z,12.18
2023-02-24T18:25:42.531Z,11.55
2023-02-24T18:28:09.044Z,13.80
2023-02-24T18:30:38.134Z,11.23
2023-02-24T18:33:04.826Z,12.50
2023-02-24T18:35:31.402Z,10.48
2023-02-24T18:37:57.887Z,13.25
2023-02-24T18:40:26.287Z,14.27
2023-02-24T18:42:52.960Z,13.77
2023-02-24T18:45:20.605Z,16.63
2023-02-24T18:47:47.187Z,12.45
2023-02-24T18:50:14.595Z,20.60
2023-02-24T18:52:41.454Z,15.60
2023-02-24T18:55:09.084Z,18.73
2023-02-24T18:57:35.884Z,14.43
2023-02-24T19:00:04.821Z,10.65
2023-02-24T19:02:31.285Z,14.50
2023-02-24T19:04:57.929Z,13.80
2023-02-24T19:07:24.364Z,12.48
2023-02-24T19:09:50.983Z,21.33
2023-02-24T19:12:17.801Z,13.32
2023-02-24T19:14:44.666Z,15.63
2023-02-24T19:17:11.248Z,12.45
2023-02-24T19:19:39.151Z,15.43
2023-02-24T19:22:05.603Z,12.10
2023-02-24T19:24:32.088Z,16.00
2023-02-24T19:26:58.577Z,11.32
2023-02-24T19:29:27.044Z,10.95
2023-02-24T19:31:54.676Z,14.00
2023-02-24T19:34:21.600Z,13.97
2023-02-24T19:36:48.025Z,10.50
2023-02-24T19:39:16.626Z,19.13
2023-02-24T19:41:43.520Z,11.70
2023-02-24T19:44:10.120Z,12.48
2023-02-24T19:46:36.665Z,12.43
2023-02-24T19:49:04.451Z,12.95
2023-02-24T19:51:31.704Z,18.23
2023-02-24T19:54:00.425Z,17.80
2023-02-24T19:56:30.207Z,12.35
2023-02-24T19:58:58.393Z,12.63
2023-02-24T20:01:25.764Z,13.15
2023-02-24T20:03:55.566Z,15.50
2023-02-24T20:06:25.450Z,14.93
2023-02-24T20:08:52.609Z,15.55
2023-02-24T20:11:19.327Z,18.27
2023-02-24T20:13:46.458Z,20.48
2023-02-24T20:16:15.805Z,20.30
2023-02-24T20:18:42.843Z,18.55
2023-02-24T20:21:09.662Z,18.27
2023-02-24T20:23:36.401Z,18.87
2023-02-24T20:26:03.612Z,14.32
2023-02-24T20:28:30.643Z,14.52
2023-02-24T20:30:59.231Z,19.88
2023-02-24T20:33:26.129Z,12.40
2023-02-24T20:35:52.627Z,15.07
2023-02-24T20:38:19.112Z,16.25
2023-02-24T20:40:45.632Z,14.27
2023-02-24T20:43:12.078Z,16.38
2023-02-24T20:45:38.997Z,14.05
2023-02-24T20:48:05.517Z,14.73
2023-02-24T20:50:32.015Z,16.10
2023-02-24T20:52:58.477Z,16.85
2023-02-24T20:55:25.052Z,13.93
2023-02-24T20:57:51.503Z,17.50
2023-02-24T21:00:18.550Z,13.10
2023-02-24T21:02:45.061Z,17.60
2023-02-24T21:05:23.911Z,13.63
2023-02-24T21:07:50.561Z,14.68
2023-02-24T21:10:18.445Z,18.60
2023-02-24T21:12:45.620Z,17.20
2023-02-24T21:15:12.327Z,15.05
2023-02-24T21:17:39.628Z,15.10
2023-02-24T21:20:07.542Z,14.80
2023-02-24T21:22:34.014Z,20.60
2023-02-24T21:25:00.553Z,18.13
2023-02-24T21:27:27.012Z,19.35
2023-02-24T21:29:53.539Z,16.88
2023-02-24T21:32:20.163Z,12.02
2023-02-24T21:34:46.879Z,14.10
2023-02-24T21:37:13.361Z,15.20
2023-02-24T21:39:39.785Z,14.77
2023-02-24T21:42:06.281Z,17.58
2023-02-24T21:44:33.159Z,15.45
2023-02-24T21:46:59.590Z,19.02
2023-02-24T21:49:26.132Z,14.13
2023-02-24T21:51:52.549Z,15.80
2023-02-24T21:54:18.974Z,14.32
2023-02-24T21:56:45.516Z,19.42
2023-02-24T21:59:11.954Z,14.48
2023-02-24T22:01:44.138Z,16.83
2023-02-24T22:04:17.335Z,20.60
2023-02-24T22:06:43.945Z,20.30
2023-02-24T22:09:11.844Z,13.98
2023-02-24T22:11:40.283Z,15.85
2023-02-24T22:14:11.141Z,20.47
2023-02-24T22:16:37.742Z,19.60
2023-02-24T22:19:04.643Z,19.02
2023-02-24T22:21:32.677Z,13.95
2023-02-24T22:24:01.457Z,15.40
2023-02-24T22:26:30.235Z,11.07
2023-02-24T22:28:56.941Z,16.02
2023-02-24T22:31:26.039Z,11.63
2023-02-24T22:33:52.824Z,13.25
2023-02-24T22:36:33.884Z,10.07
2023-02-24T22:39:01.390Z,9.80
2023-02-24T22:41:33.526Z,11.07
2023-02-24T22:44:01.063Z,13.70
2023-02-24T22:46:30.543Z,11.63
2023-02-24T22:48:57.967Z,9.98
2023-02-24T22:51:25.617Z,11.67
2023-02-24T22:53:52.561Z,11.82
2023-02-24T22:56:29.420Z,12.38
2023-02-24T22:58:56.412Z,14.32
2023-02-24T23:01:37.023Z,14.10
2023-02-24T23:04:06.372Z,13.47
2023-02-24T23:06:34.253Z,12.13
2023-02-24T23:09:02.315Z,14.35
2023-02-24T23:11:33.052Z,12.07
2023-02-24T23:14:02.474Z,15.02
2023-02-24T23:16:34.838Z,17.27
2023-02-24T23:19:05.150Z,14.98
2023-02-24T23:21:36.379Z,12.05
2023-02-24T23:24:03.647Z,12.40
2023-02-24T23:26:35.909Z,11.90
2023-02-24T23:29:03.454Z,15.50
2023-02-24T23:31:30.126Z,12.43
2023-02-24T23:33:56.646Z,14.88
2023-02-24T23:36:24.050Z,14.75
2023-02-24T23:38:50.902Z,16.70
2023-02-24T23:41:17.588Z,11.20
2023-02-24T23:43:44.175Z,14.38
2023-02-24T23:46:12.460Z,13.52
2023-02-24T23:48:39.516Z,11.82
2023-02-24T23:51:09.114Z,11.40
2023-02-24T23:53:40.765Z,10.90
2023-02-24T23:56:27.374Z,11.13
2023-02-24T23:58:58.630Z,12.13
